createdAt,value
2017-10-17T00:01:09.164Z,79.90
2017-10-17T00:03:37.385Z,79.80
2017-10-17T00:06:04.867Z,79.80
2017-10-17T00:11:06.163Z,79.90
2017-10-17T00:13:34.393Z,79.80
2017-10-17T00:16:01.965Z,79.70
2017-10-17T00:18:29.534Z,79.60
2017-10-17T00:20:57.011Z,79.60
2017-10-17T00:23:25.253Z,79.50
2017-10-17T00:25:52.848Z,79.50
2017-10-17T00:28:21.093Z,79.60
2017-10-17T00:30:49.226Z,79.50
2017-10-17T00:33:20.500Z,80.60
2017-10-17T00:35:51.398Z,80.10
2017-10-17T00:38:18.890Z,80.10
2017-10-17T00:40:46.362Z,79.80
2017-10-17T00:43:14.478Z,79.60
2017-10-17T00:45:41.959Z,79.70
2017-10-17T00:48:09.435Z,80.10
2017-10-17T00:50:38.687Z,80.10
2017-10-17T00:53:06.589Z,79.90
2017-10-17T00:55:34.134Z,79.70
2017-10-17T00:58:01.601Z,79.80
2017-10-17T01:00:29.085Z,79.90
2017-10-17T01:02:58.075Z,79.50
2017-10-17T01:05:27.079Z,79.60
2017-10-17T01:07:54.544Z,79.60
2017-10-17T01:10:22.797Z,79.40
2017-10-17T01:12:50.394Z,79.40
2017-10-17T01:15:18.635Z,79.60
2017-10-17T01:17:46.238Z,79.50
2017-10-17T01:20:18.390Z,79.60
2017-10-17T01:22:46.671Z,79.40
2017-10-17T01:25:14.911Z,79.20
2017-10-17T01:27:42.385Z,79.10
2017-10-17T01:30:09.960Z,79.20
2017-10-17T01:32:38.192Z,79.10
2017-10-17T01:35:05.681Z,79.10
2017-10-17T01:37:33.929Z,79.90
2017-10-17T01:40:04.098Z,79.90
2017-10-17T01:42:31.600Z,79.10
2017-10-17T01:45:03.419Z,79.10
2017-10-17T01:47:30.939Z,79.20
2017-10-17T01:49:59.787Z,79.20
2017-10-17T01:52:27.984Z,79.40
2017-10-17T01:54:56.212Z,79.30
2017-10-17T01:57:23.736Z,79.50
2017-10-17T02:00:07.069Z,79.60
2017-10-17T02:02:39.215Z,79.60
2017-10-17T02:05:06.690Z,79.80
2017-10-17T02:07:35.013Z,79.90
2017-10-17T02:10:04.904Z,80.00
2017-10-17T02:12:32.394Z,80.00
2017-10-17T02:14:59.876Z,80.00
2017-10-17T02:17:28.070Z,80.00
2017-10-17T02:19:55.633Z,80.20
2017-10-17T02:22:28.620Z,80.30
2017-10-17T02:24:57.650Z,80.20
2017-10-17T02:27:25.156Z,80.10
2017-10-17T02:29:57.333Z,80.10
2017-10-17T02:32:25.591Z,80.20
2017-10-17T02:35:08.732Z,80.20
2017-10-17T02:37:36.219Z,80.30
2017-10-17T02:40:03.690Z,80.10
2017-10-17T02:42:31.154Z,80.20
2017-10-17T02:44:58.647Z,80.00
2017-10-17T02:47:26.754Z,80.10
2017-10-17T02:49:55.923Z,79.90
2017-10-17T02:52:27.971Z,79.80
2017-10-17T02:54:55.455Z,80.10
2017-10-17T02:57:23.702Z,80.10
2017-10-17T02:59:51.977Z,80.00
2017-10-17T03:02:47.852Z,80.40
2017-10-17T03:05:19.050Z,80.50
2017-10-17T03:07:50.031Z,80.30
2017-10-17T03:10:17.634Z,80.30
2017-10-17T03:12:45.110Z,80.50
2017-10-17T03:15:12.685Z,80.30
2017-10-17T03:17:40.169Z,80.20
2017-10-17T03:20:07.723Z,80.10
2017-10-17T03:22:35.250Z,80.00
2017-10-17T03:25:07.319Z,80.10
2017-10-17T03:27:34.801Z,80.10
2017-10-17T03:30:02.296Z,80.30
2017-10-17T03:32:29.772Z,80.00
2017-10-17T03:35:18.735Z,80.00
2017-10-17T03:37:56.879Z,80.00
2017-10-17T03:43:38.139Z,79.90
2017-10-17T03:46:05.818Z,80.20
2017-10-17T03:48:33.313Z,80.30
2017-10-17T03:51:12.385Z,81.10
2017-10-17T03:53:44.568Z,81.10
2017-10-17T03:56:27.700Z,80.20
2017-10-17T03:59:06.396Z,80.30
2017-10-17T04:01:33.882Z,80.30
2017-10-17T04:04:18.835Z,80.20
2017-10-17T04:06:52.126Z,80.20
2017-10-17T04:09:20.472Z,79.50
2017-10-17T04:11:47.955Z,80.10
2017-10-17T04:17:36.398Z,79.80
2017-10-17T04:20:26.523Z,80.20
2017-10-17T04:23:10.563Z,80.10
2017-10-17T04:29:02.103Z,79.80
2017-10-17T04:31:38.320Z,80.10
2017-10-17T04:34:10.389Z,80.40
2017-10-17T04:36:51.623Z,80.40
2017-10-17T04:39:19.941Z,80.50
2017-10-17T04:41:56.077Z,80.40
2017-10-17T04:47:42.449Z,80.20
2017-10-17T04:50:31.728Z,80.40
2017-10-17T04:56:07.486Z,80.20
2017-10-17T04:58:40.902Z,80.60
2017-10-17T05:01:08.449Z,80.60
2017-10-17T05:06:31.274Z,80.10
2017-10-17T05:09:12.199Z,80.50
2017-10-17T05:11:39.774Z,80.40
2017-10-17T05:14:27.380Z,80.60
2017-10-17T05:17:01.497Z,80.50
2017-10-17T05:22:32.150Z,80.30
2017-10-17T05:25:07.183Z,80.70
2017-10-17T05:27:46.773Z,80.70
2017-10-17T05:30:20.020Z,80.40
2017-10-17T05:32:48.306Z,80.60
2017-10-17T05:35:26.443Z,80.80
2017-10-17T05:37:53.942Z,81.60
2017-10-17T05:40:21.423Z,80.90
2017-10-17T05:42:49.740Z,80.70
2017-10-17T05:45:18.926Z,80.60
2017-10-17T05:47:52.190Z,80.70
2017-10-17T05:50:22.410Z,80.70
2017-10-17T05:52:50.645Z,80.80
2017-10-17T05:55:18.123Z,80.60
2017-10-17T05:57:45.677Z,80.60
2017-10-17T06:00:13.150Z,81.40
2017-10-17T06:02:40.635Z,80.50
2017-10-17T06:05:08.152Z,80.50
2017-10-17T06:07:35.632Z,80.50
2017-10-17T06:10:03.924Z,80.40
2017-10-17T06:12:31.418Z,80.40
2017-10-17T06:14:58.898Z,80.30
2017-10-17T06:17:26.379Z,80.50
2017-10-17T06:19:54.642Z,80.30
2017-10-17T06:22:22.147Z,80.30
2017-10-17T06:24:49.743Z,80.40
2017-10-17T06:27:17.274Z,80.10
2017-10-17T06:29:44.767Z,80.20
2017-10-17T06:32:12.282Z,80.10
2017-10-17T06:34:39.787Z,80.20
2017-10-17T06:37:07.257Z,80.30
2017-10-17T06:39:34.800Z,80.10
2017-10-17T06:42:02.589Z,79.90
2017-10-17T06:44:30.834Z,80.00
2017-10-17T06:46:58.400Z,80.00
2017-10-17T06:49:25.909Z,80.20
2017-10-17T06:51:53.485Z,80.20
2017-10-17T06:54:20.969Z,80.00
2017-10-17T06:56:48.483Z,79.80
2017-10-17T06:59:15.961Z,79.50
2017-10-17T07:01:43.438Z,79.40
2017-10-17T07:04:11.046Z,79.40
2017-10-17T07:06:38.562Z,79.40
2017-10-17T07:09:06.098Z,79.50
2017-10-17T07:11:33.626Z,79.30
2017-10-17T07:14:01.139Z,79.10
2017-10-17T07:16:28.622Z,78.70
2017-10-17T07:18:56.883Z,78.20
2017-10-17T07:21:25.141Z,78.50
2017-10-17T07:23:52.606Z,78.40
2017-10-17T07:26:20.082Z,78.10
2017-10-17T07:28:48.332Z,77.60
2017-10-17T07:31:16.612Z,77.40
2017-10-17T07:33:44.086Z,77.50
2017-10-17T07:36:12.385Z,78.10
2017-10-17T07:38:39.867Z,77.30
2017-10-17T07:41:07.354Z,77.20
2017-10-17T07:43:34.834Z,77.40
2017-10-17T07:46:03.093Z,76.50
2017-10-17T07:48:31.419Z,76.10
2017-10-17T07:50:58.898Z,76.00
2017-10-17T07:53:26.397Z,76.40
2017-10-17T07:55:54.650Z,75.70
2017-10-17T07:58:22.138Z,75.70
2017-10-17T08:00:50.383Z,75.40
2017-10-17T08:05:52.466Z,74.60
2017-10-17T08:08:21.458Z,74.60
2017-10-17T08:10:48.961Z,74.60
2017-10-17T08:13:16.487Z,74.70
2017-10-17T08:15:44.730Z,73.10
2017-10-17T08:18:12.219Z,73.90
2017-10-17T08:20:40.556Z,73.30
2017-10-17T08:23:08.035Z,72.90
2017-10-17T08:25:35.510Z,72.50
2017-10-17T08:28:03.751Z,72.00
2017-10-17T08:30:31.248Z,71.30
2017-10-17T08:32:59.485Z,70.40
2017-10-17T08:35:26.970Z,69.50
2017-10-17T08:37:54.540Z,69.90
2017-10-17T08:40:22.796Z,68.70
2017-10-17T08:42:50.270Z,68.60
2017-10-17T08:45:18.506Z,69.10
2017-10-17T08:47:45.989Z,69.10
2017-10-17T08:50:13.457Z,68.40
2017-10-17T08:52:41.695Z,68.10
2017-10-17T08:55:09.191Z,68.00
2017-10-17T08:57:37.429Z,68.80
2017-10-17T09:00:04.922Z,68.60
2017-10-17T09:02:33.163Z,67.80
2017-10-17T09:05:00.690Z,67.70
2017-10-17T09:07:28.250Z,67.70
2017-10-17T09:09:56.131Z,67.00
2017-10-17T09:12:23.626Z,67.30
2017-10-17T09:14:51.876Z,65.90
2017-10-17T09:17:19.352Z,65.30
2017-10-17T09:19:46.816Z,64.90
2017-10-17T09:22:15.061Z,64.50
2017-10-17T09:24:42.579Z,64.00
2017-10-17T09:27:10.058Z,64.90
2017-10-17T09:29:37.563Z,65.00
2017-10-17T09:32:05.834Z,64.10
2017-10-17T09:34:33.288Z,63.10
2017-10-17T09:37:00.767Z,63.40
2017-10-17T09:39:29.007Z,61.30
2017-10-17T09:41:56.506Z,61.10
2017-10-17T09:44:24.025Z,59.80
2017-10-17T09:46:51.482Z,60.10
2017-10-17T09:49:18.963Z,60.60
2017-10-17T09:51:47.226Z,61.20
2017-10-17T09:54:14.698Z,61.20
2017-10-17T09:56:42.928Z,58.60
2017-10-17T09:59:10.395Z,58.50
2017-10-17T10:01:37.885Z,57.40
2017-10-17T10:04:06.150Z,56.30
2017-10-17T10:06:34.402Z,55.80
2017-10-17T10:09:02.008Z,55.00
2017-10-17T10:11:29.486Z,54.00
2017-10-17T10:13:57.049Z,55.00
2017-10-17T10:16:24.566Z,52.10
2017-10-17T10:18:52.838Z,51.30
2017-10-17T10:21:21.111Z,51.50
2017-10-17T10:23:48.833Z,51.40
2017-10-17T10:26:16.309Z,51.90
2017-10-17T10:28:43.787Z,52.40
2017-10-17T10:31:11.345Z,49.50
2017-10-17T10:33:38.804Z,50.50
2017-10-17T10:36:07.807Z,47.60
2017-10-17T10:38:36.069Z,48.50
2017-10-17T10:41:03.536Z,48.40
2017-10-17T10:43:31.786Z,47.70
2017-10-17T10:45:59.257Z,47.60
2017-10-17T10:48:27.509Z,48.70
2017-10-17T10:50:54.991Z,48.40
2017-10-17T10:53:22.519Z,48.50
2017-10-17T10:55:50.005Z,49.60
2017-10-17T10:58:18.250Z,46.60
2017-10-17T11:00:45.951Z,46.60
2017-10-17T11:03:14.247Z,47.30
2017-10-17T11:05:41.723Z,47.30
2017-10-17T11:08:09.201Z,48.80
2017-10-17T11:10:36.682Z,49.60
2017-10-17T11:13:04.166Z,49.00
2017-10-17T11:15:32.406Z,45.40
2017-10-17T11:17:59.893Z,45.30
2017-10-17T11:20:28.133Z,45.50
2017-10-17T11:22:55.616Z,45.50
2017-10-17T11:25:23.145Z,45.10
2017-10-17T11:27:50.626Z,45.10
2017-10-17T11:30:18.086Z,42.90
2017-10-17T11:32:46.480Z,38.90
2017-10-17T11:35:14.739Z,40.40
2017-10-17T11:37:42.202Z,40.40
2017-10-17T11:40:10.487Z,37.90
2017-10-17T11:42:50.802Z,38.70
2017-10-17T11:45:18.345Z,38.60
2017-10-17T11:47:45.897Z,36.70
2017-10-17T11:50:13.765Z,36.80
2017-10-17T11:52:41.271Z,37.70
2017-10-17T11:55:08.747Z,36.80
2017-10-17T11:57:37.007Z,37.80
2017-10-17T12:00:05.282Z,40.00
2017-10-17T12:02:33.546Z,41.70
2017-10-17T12:05:01.783Z,42.90
2017-10-17T12:07:29.286Z,42.90
2017-10-17T12:09:57.321Z,43.50
2017-10-17T12:12:26.297Z,46.00
2017-10-17T12:14:53.819Z,46.00
2017-10-17T12:17:22.210Z,47.80
2017-10-17T12:19:49.700Z,47.70
2017-10-17T12:22:17.177Z,48.20
2017-10-17T12:24:44.648Z,49.40
2017-10-17T12:27:12.119Z,50.00
2017-10-17T12:29:40.858Z,50.40
2017-10-17T12:32:09.843Z,51.00
2017-10-17T12:34:38.628Z,51.20
2017-10-17T12:37:07.571Z,51.50
2017-10-17T12:39:35.101Z,51.40
2017-10-17T12:42:02.586Z,52.10
2017-10-17T12:44:30.821Z,53.00
2017-10-17T12:46:58.364Z,52.80
2017-10-17T12:49:25.830Z,53.10
2017-10-17T12:51:53.320Z,53.10
2017-10-17T12:54:20.794Z,53.40
2017-10-17T12:56:48.309Z,53.80
2017-10-17T12:59:15.766Z,53.90
2017-10-17T13:01:43.238Z,54.10
2017-10-17T13:04:10.720Z,54.00
2017-10-17T13:06:38.221Z,54.00
2017-10-17T13:09:05.688Z,54.30
2017-10-17T13:11:33.164Z,53.80
2017-10-17T13:14:00.655Z,53.80
2017-10-17T13:16:28.900Z,54.10
2017-10-17T13:18:56.485Z,54.10
2017-10-17T13:21:24.742Z,54.10
2017-10-17T13:23:52.223Z,54.10
2017-10-17T13:26:19.701Z,54.00
2017-10-17T13:28:47.234Z,54.50
2017-10-17T13:31:15.464Z,55.40
2017-10-17T13:33:42.965Z,55.20
2017-10-17T13:36:11.242Z,55.40
2017-10-17T13:38:39.469Z,55.50
2017-10-17T13:41:06.957Z,55.50
2017-10-17T13:43:34.434Z,55.20
2017-10-17T13:46:02.717Z,55.40
2017-10-17T13:48:30.991Z,54.60
2017-10-17T13:50:59.228Z,54.70
2017-10-17T13:53:26.719Z,54.60
2017-10-17T13:55:54.965Z,55.50
2017-10-17T13:58:22.446Z,55.40
2017-10-17T14:00:50.699Z,55.70
2017-10-17T14:03:18.278Z,55.70
2017-10-17T14:05:46.541Z,55.80
2017-10-17T14:08:14.089Z,55.60
2017-10-17T14:10:41.598Z,56.00
2017-10-17T14:13:09.059Z,55.90
2017-10-17T14:15:36.537Z,55.70
2017-10-17T14:18:04.026Z,55.90
2017-10-17T14:20:31.589Z,56.20
2017-10-17T14:22:59.068Z,56.20
2017-10-17T14:25:27.389Z,56.60
2017-10-17T14:27:54.870Z,56.60
2017-10-17T14:30:22.337Z,56.30
2017-10-17T14:32:49.950Z,56.10
2017-10-17T14:35:17.446Z,55.50
2017-10-17T14:37:44.972Z,55.40
2017-10-17T14:40:12.537Z,55.30
2017-10-17T14:42:40.033Z,53.90
2017-10-17T14:45:07.502Z,53.40
2017-10-17T14:47:35.778Z,54.50
2017-10-17T14:50:04.012Z,54.50
2017-10-17T14:52:31.486Z,54.50
2017-10-17T14:54:58.971Z,55.10
2017-10-17T14:57:27.242Z,55.80
2017-10-17T14:59:55.515Z,56.30
2017-10-17T15:02:23.746Z,56.30
2017-10-17T15:04:51.223Z,56.20
2017-10-17T15:07:18.710Z,56.10
2017-10-17T15:09:46.979Z,55.60
2017-10-17T15:12:15.223Z,55.00
2017-10-17T15:14:42.711Z,54.90
2017-10-17T15:17:10.962Z,55.00
2017-10-17T15:19:38.576Z,55.00
2017-10-17T15:22:06.047Z,54.80
2017-10-17T15:24:33.526Z,54.70
2017-10-17T15:27:00.994Z,54.80
2017-10-17T15:29:29.993Z,54.90
2017-10-17T15:31:57.470Z,54.90
2017-10-17T15:34:24.948Z,55.60
2017-10-17T15:36:52.434Z,56.60
2017-10-17T15:39:19.907Z,57.20
2017-10-17T15:41:47.402Z,58.00
2017-10-17T15:44:14.933Z,58.50
2017-10-17T15:46:42.399Z,58.90
2017-10-17T15:49:10.668Z,60.80
2017-10-17T15:51:38.146Z,60.00
2017-10-17T15:54:05.623Z,60.60
2017-10-17T15:56:33.102Z,61.20
2017-10-17T15:59:00.570Z,61.80
2017-10-17T16:01:28.057Z,62.60
2017-10-17T16:03:55.542Z,63.00
2017-10-17T16:06:23.061Z,63.30
2017-10-17T16:08:50.641Z,63.80
2017-10-17T16:11:18.950Z,64.90
2017-10-17T16:13:46.459Z,64.90
2017-10-17T16:16:13.965Z,65.20
2017-10-17T16:18:41.446Z,65.40
2017-10-17T16:21:08.934Z,65.90
2017-10-17T16:23:36.415Z,66.20
2017-10-17T16:26:03.895Z,66.60
2017-10-17T16:28:31.402Z,66.90
2017-10-17T16:30:58.907Z,67.00
2017-10-17T16:33:26.383Z,67.30
2017-10-17T16:35:53.905Z,67.40
2017-10-17T16:38:21.398Z,67.80
2017-10-17T16:40:48.918Z,68.20
2017-10-17T16:43:16.418Z,68.70
2017-10-17T16:45:43.919Z,68.90
2017-10-17T16:48:12.166Z,69.20
2017-10-17T16:50:39.746Z,69.20
2017-10-17T16:53:07.880Z,69.60
2017-10-17T16:55:35.420Z,69.80
2017-10-17T16:58:02.913Z,69.80
2017-10-17T17:00:30.386Z,69.90
2017-10-17T17:02:57.873Z,70.10
2017-10-17T17:05:25.342Z,71.20
2017-10-17T17:07:52.810Z,70.70
2017-10-17T17:10:20.463Z,70.80
2017-10-17T17:12:47.942Z,71.00
2017-10-17T17:15:15.424Z,71.30
2017-10-17T17:17:42.904Z,71.50
2017-10-17T17:20:11.167Z,71.90
2017-10-17T17:22:38.688Z,71.80
2017-10-17T17:25:06.198Z,72.00
2017-10-17T17:27:34.466Z,72.20
2017-10-17T17:30:01.949Z,72.10
2017-10-17T17:32:29.528Z,72.20
2017-10-17T17:34:57.011Z,72.70
2017-10-17T17:37:24.521Z,72.70
2017-10-17T17:39:52.053Z,73.00
2017-10-17T17:42:20.414Z,73.20
2017-10-17T17:44:48.706Z,73.40
2017-10-17T17:47:18.390Z,73.20
2017-10-17T17:49:45.858Z,73.10
2017-10-17T17:52:13.347Z,73.40
2017-10-17T17:54:41.591Z,73.40
2017-10-17T17:57:09.157Z,73.50
2017-10-17T17:59:36.635Z,73.50
2017-10-17T18:02:04.898Z,74.00
2017-10-17T18:04:32.372Z,73.90
2017-10-17T18:07:00.665Z,74.00
2017-10-17T18:09:28.187Z,74.00
2017-10-17T18:11:56.424Z,74.60
2017-10-17T18:14:23.885Z,74.50
2017-10-17T18:16:51.622Z,74.30
2017-10-17T18:19:19.130Z,74.50
2017-10-17T18:21:46.611Z,74.70
2017-10-17T18:24:14.970Z,74.50
2017-10-17T18:26:43.192Z,74.70
2017-10-17T18:29:10.693Z,74.70
2017-10-17T18:31:39.675Z,75.20
2017-10-17T18:34:07.268Z,75.10
2017-10-17T18:36:35.564Z,75.60
2017-10-17T18:39:03.030Z,75.60
2017-10-17T18:41:30.632Z,75.70
2017-10-17T18:43:58.138Z,75.80
2017-10-17T18:46:25.627Z,75.80
2017-10-17T18:48:53.157Z,76.30
2017-10-17T18:51:20.629Z,76.40
2017-10-17T18:53:48.118Z,76.40
2017-10-17T18:56:15.601Z,76.40
2017-10-17T18:58:43.837Z,76.50
2017-10-17T19:01:11.350Z,76.40
2017-10-17T19:03:38.923Z,76.00
2017-10-17T19:06:06.414Z,76.20
2017-10-17T19:08:33.918Z,76.30
2017-10-17T19:11:02.163Z,76.60
2017-10-17T19:13:30.412Z,76.80
2017-10-17T19:15:57.909Z,76.80
2017-10-17T19:18:26.284Z,76.50
2017-10-17T19:20:53.847Z,76.40
2017-10-17T19:23:22.084Z,76.70
2017-10-17T19:25:50.256Z,76.60
2017-10-17T19:28:17.747Z,76.50
2017-10-17T19:30:45.997Z,76.90
2017-10-17T19:33:13.464Z,76.70
2017-10-17T19:35:42.462Z,77.10
2017-10-17T19:38:10.791Z,77.10
2017-10-17T19:40:38.259Z,77.20
2017-10-17T19:43:05.742Z,76.90
2017-10-17T19:45:35.450Z,77.20
2017-10-17T19:48:02.931Z,77.20
2017-10-17T19:50:31.177Z,77.50
2017-10-17T19:52:58.653Z,77.50
2017-10-17T19:55:26.127Z,77.50
2017-10-17T19:57:54.381Z,77.60
2017-10-17T20:00:21.871Z,77.50
2017-10-17T20:02:49.330Z,77.70
2017-10-17T20:05:16.810Z,77.60
2017-10-17T20:07:46.165Z,77.60
2017-10-17T20:10:13.826Z,77.60
2017-10-17T20:12:42.090Z,77.90
2017-10-17T20:15:09.586Z,77.80
2017-10-17T20:17:37.102Z,77.90
2017-10-17T20:20:06.083Z,78.00
2017-10-17T20:22:33.566Z,78.00
2017-10-17T20:25:01.813Z,78.10
2017-10-17T20:27:29.298Z,78.10
2017-10-17T20:29:57.550Z,78.30
2017-10-17T20:32:25.040Z,78.20
2017-10-17T20:34:53.293Z,78.50
2017-10-17T20:37:20.770Z,78.40
2017-10-17T20:39:49.074Z,78.50
2017-10-17T20:42:16.565Z,78.40
2017-10-17T20:44:44.050Z,78.50
2017-10-17T20:47:12.280Z,78.50
2017-10-17T20:49:39.739Z,78.50
2017-10-17T20:52:07.250Z,78.40
2017-10-17T20:54:35.506Z,78.60
2017-10-17T20:57:03.757Z,79.10
2017-10-17T20:59:31.230Z,78.60
2017-10-17T21:01:58.736Z,78.70
2017-10-17T21:04:26.266Z,78.50
2017-10-17T21:06:54.507Z,79.00
2017-10-17T21:09:21.969Z,78.90
2017-10-17T21:11:49.443Z,78.90
2017-10-17T21:14:16.913Z,78.80
2017-10-17T21:16:45.159Z,78.90
2017-10-17T21:19:12.723Z,78.80
2017-10-17T21:21:40.211Z,78.80
2017-10-17T21:24:08.512Z,79.00
2017-10-17T21:26:35.976Z,79.00
2017-10-17T21:29:03.467Z,79.10
2017-10-17T21:31:30.957Z,79.20
2017-10-17T21:33:59.194Z,79.40
2017-10-17T21:36:26.707Z,79.30
2017-10-17T21:38:54.182Z,79.30
2017-10-17T21:41:21.674Z,79.60
2017-10-17T21:43:49.804Z,79.50
2017-10-17T21:46:17.334Z,79.40
2017-10-17T21:48:45.579Z,79.30
2017-10-17T21:51:13.065Z,79.30
2017-10-17T21:53:41.287Z,79.20
2017-10-17T21:56:08.769Z,79.20
2017-10-17T21:58:36.315Z,79.10
2017-10-17T22:01:03.885Z,79.20
2017-10-17T22:03:32.270Z,79.20
2017-10-17T22:05:59.848Z,79.20
2017-10-17T22:08:28.093Z,79.20
2017-10-17T22:10:57.721Z,79.20
2017-10-17T22:13:26.014Z,79.30
2017-10-17T22:15:53.489Z,79.30
2017-10-17T22:18:21.002Z,79.40
2017-10-17T22:20:48.483Z,79.40
2017-10-17T22:23:16.728Z,79.50
2017-10-17T22:25:44.208Z,79.40
2017-10-17T22:28:12.453Z,79.50
2017-10-17T22:30:40.017Z,79.40
2017-10-17T22:33:08.169Z,79.40
2017-10-17T22:35:35.630Z,79.40
2017-10-17T22:38:03.209Z,79.60
2017-10-17T22:40:30.764Z,79.70
2017-10-17T22:42:58.229Z,79.90
2017-10-17T22:45:25.789Z,79.90
2017-10-17T22:47:54.058Z,79.60
2017-10-17T22:50:21.671Z,79.60
2017-10-17T22:52:49.141Z,79.70
2017-10-17T22:55:16.634Z,79.70
2017-10-17T22:57:44.145Z,79.50
2017-10-17T23:00:11.650Z,79.70
2017-10-17T23:02:39.182Z,79.90
2017-10-17T23:05:06.772Z,79.80
2017-10-17T23:07:34.247Z,79.80
2017-10-17T23:10:02.502Z,79.90
2017-10-17T23:12:29.986Z,79.90
2017-10-17T23:14:57.463Z,79.90
2017-10-17T23:17:36.970Z,79.90
2017-10-17T23:20:16.976Z,79.50
2017-10-17T23:22:44.460Z,79.50
2017-10-17T23:25:11.934Z,79.60
2017-10-17T23:27:40.180Z,79.80
2017-10-17T23:30:07.658Z,79.80
2017-10-17T23:32:35.892Z,79.60
2017-10-17T23:35:03.373Z,79.50
2017-10-17T23:37:31.610Z,79.80
2017-10-17T23:39:59.077Z,79.80
2017-10-17T23:42:26.568Z,79.80
2017-10-17T23:44:55.075Z,79.70
2017-10-17T23:47:22.628Z,79.60
2017-10-17T23:49:50.912Z,79.70
2017-10-17T23:52:19.162Z,79.70
2017-10-17T23:54:46.646Z,79.60
2017-10-17T23:57:14.124Z,80.40
2017-10-17T23:59:41.583Z,79.80
